Main page
METAR-TAF:

METAR-TAF

Airports :

Kittilä Airport

Kittilä, Finland

latitude: 67-42N, longitude: 024-51E, elevation: 196 m

Current weather observation

The report was made 33 minutes ago, at 22:50 UTC
Wind 4 kt from the South/Southwest, varying between South/Southeast and West/Southwest
Temperature -5°C
Humidity 93%
Pressure 968 hPa
Visibility 10 km or more
no clouds below 1500 m and no cumulonimbus

METAR: EFKT 172250Z AUTO 21004KT 160V240 CAVOK M05/M06 Q0968

Time: 01:23 (23:23 UTC)

Forecast

The report was made 5 hours and 57 minutes ago, at 17:26 UTC
Forecast valid from 17 at 18 UTC to 17 at 22 UTC
Wind 5 kt from the East
Visibility 10 km or more
no clouds below 1500 m and no cumulonimbus

TAF: EFKT 171726Z 1718/1722 10005KT CAVOK

Weather observations and forecasts of more than 4000 airports (METAR and TAF reports).

The available stations are represented by yellow and red dots on the map.

Hover mouse over dot to see the name of the station.

Then click to see weather observations and forecasts.

To change the map : click on the green buttons with a black cross to zoom in, on the green button with a dash to zoom out, or on the green arrows for adjacent maps.


METAR-TAF: